sensor_id;sensor_type;location;lat;lon;timestamp;pressure;altitude;pressure_sealevel;temperature;humidity
46366;BME280;72328;49.570;8.722;2023-10-09T00:03:18;100260.25;;;18.50;48.42
46366;BME280;72328;49.570;8.722;2023-10-09T00:07:19;100251.06;;;18.46;48.61
46366;BME280;72328;49.570;8.722;2023-10-09T00:11:20;100240.91;;;18.43;48.58
46366;BME280;72328;49.570;8.722;2023-10-09T00:15:21;100249.16;;;18.39;48.70
46366;BME280;72328;49.570;8.722;2023-10-09T00:19:22;100235.72;;;18.34;48.50
46366;BME280;72328;49.570;8.722;2023-10-09T00:23:32;100238.72;;;18.29;48.78
46366;BME280;72328;49.570;8.722;2023-10-09T00:27:34;100236.25;;;18.28;48.83
46366;BME280;72328;49.570;8.722;2023-10-09T00:31:36;100241.84;;;18.23;48.60
46366;BME280;72328;49.570;8.722;2023-10-09T00:35:38;100235.97;;;18.21;48.68
46366;BME280;72328;49.570;8.722;2023-10-09T00:39:54;100226.63;;;18.19;48.69
46366;BME280;72328;49.570;8.722;2023-10-09T00:43:58;100218.16;;;18.17;49.14
46366;BME280;72328;49.570;8.722;2023-10-09T00:47:59;100210.59;;;18.14;49.06
46366;BME280;72328;49.570;8.722;2023-10-09T00:52:03;100198.66;;;18.11;49.15
46366;BME280;72328;49.570;8.722;2023-10-09T00:56:04;100209.78;;;18.13;49.44
46366;BME280;72328;49.570;8.722;2023-10-09T01:00:21;100213.50;;;18.11;49.24
46366;BME280;72328;49.570;8.722;2023-10-09T01:04:46;100209.91;;;18.12;49.15
46366;BME280;72328;49.570;8.722;2023-10-09T01:08:47;100211.81;;;18.10;49.23
46366;BME280;72328;49.570;8.722;2023-10-09T01:13:06;100197.28;;;18.07;49.21
46366;BME280;72328;49.570;8.722;2023-10-09T01:17:10;100193.03;;;18.06;49.28
46366;BME280;72328;49.570;8.722;2023-10-09T01:21:12;100196.34;;;18.08;49.33
46366;BME280;72328;49.570;8.722;2023-10-09T01:25:14;100192.06;;;18.07;49.42
46366;BME280;72328;49.570;8.722;2023-10-09T01:29:19;100180.13;;;18.05;49.34
46366;BME280;72328;49.570;8.722;2023-10-09T01:33:19;100185.22;;;18.06;49.60
46366;BME280;72328;49.570;8.722;2023-10-09T01:37:28;100176.44;;;18.07;49.52
46366;BME280;72328;49.570;8.722;2023-10-09T01:41:31;100174.00;;;18.06;49.60
46366;BME280;72328;49.570;8.722;2023-10-09T01:45:34;100169.44;;;18.08;49.65
46366;BME280;72328;49.570;8.722;2023-10-09T01:49:42;100172.19;;;18.06;49.62
46366;BME280;72328;49.570;8.722;2023-10-09T01:53:44;100165.19;;;18.07;49.67
46366;BME280;72328;49.570;8.722;2023-10-09T01:57:48;100158.19;;;18.07;49.66
46366;BME280;72328;49.570;8.722;2023-10-09T02:01:48;100163.41;;;18.07;49.72
46366;BME280;72328;49.570;8.722;2023-10-09T02:05:50;100152.31;;;18.05;49.61
46366;BME280;72328;49.570;8.722;2023-10-09T02:09:51;100148.72;;;18.06;49.82
46366;BME280;72328;49.570;8.722;2023-10-09T02:13:54;100165.34;;;18.05;49.88
46366;BME280;72328;49.570;8.722;2023-10-09T02:18:01;100162.84;;;18.04;49.85
46366;BME280;72328;49.570;8.722;2023-10-09T02:22:16;100165.47;;;18.04;49.76
46366;BME280;72328;49.570;8.722;2023-10-09T02:26:19;100165.47;;;18.04;49.96
46366;BME280;72328;49.570;8.722;2023-10-09T02:30:26;100160.38;;;18.02;49.96
46366;BME280;72328;49.570;8.722;2023-10-09T02:34:27;100156.97;;;18.02;49.79
46366;BME280;72328;49.570;8.722;2023-10-09T02:38:29;100145.72;;;18.01;49.85
46366;BME280;72328;49.570;8.722;2023-10-09T02:42:32;100151.91;;;18.00;50.17
46366;BME280;72328;49.570;8.722;2023-10-09T02:46:32;100143.28;;;18.00;49.99
46366;BME280;72328;49.570;8.722;2023-10-09T02:50:35;100154.50;;;18.00;50.15
46366;BME280;72328;49.570;8.722;2023-10-09T02:54:38;100156.16;;;18.01;50.09
46366;BME280;72328;49.570;8.722;2023-10-09T02:58:41;100155.34;;;18.01;50.05
46366;BME280;72328;49.570;8.722;2023-10-09T03:02:43;100150.41;;;17.98;50.11
46366;BME280;72328;49.570;8.722;2023-10-09T03:06:44;100139.31;;;17.96;49.90
46366;BME280;72328;49.570;8.722;2023-10-09T03:10:50;100137.94;;;17.92;49.83
46366;BME280;72328;49.570;8.722;2023-10-09T03:14:50;100138.06;;;17.90;49.91
46366;BME280;72328;49.570;8.722;2023-10-09T03:18:52;100139.16;;;17.88;50.07
46366;BME280;72328;49.570;8.722;2023-10-09T03:22:53;100138.63;;;17.84;49.86
46366;BME280;72328;49.570;8.722;2023-10-09T03:26:54;100139.72;;;17.82;49.88
46366;BME280;72328;49.570;8.722;2023-10-09T03:30:58;100135.59;;;17.79;49.93
46366;BME280;72328;49.570;8.722;2023-10-09T03:35:03;100139.44;;;17.75;49.99
46366;BME280;72328;49.570;8.722;2023-10-09T03:39:07;100136.16;;;17.73;50.08
46366;BME280;72328;49.570;8.722;2023-10-09T03:43:26;100144.25;;;17.70;50.00
46366;BME280;72328;49.570;8.722;2023-10-09T03:47:32;100141.81;;;17.69;49.96
46366;BME280;72328;49.570;8.722;2023-10-09T03:51:32;100137.53;;;17.68;50.09
46366;BME280;72328;49.570;8.722;2023-10-09T03:55:37;100137.94;;;17.63;50.17
46366;BME280;72328;49.570;8.722;2023-10-09T03:59:40;100134.66;;;17.61;50.27
46366;BME280;72328;49.570;8.722;2023-10-09T04:03:44;100143.28;;;17.62;50.28
46366;BME280;72328;49.570;8.722;2023-10-09T04:07:44;100136.56;;;17.59;50.17
46366;BME280;72328;49.570;8.722;2023-10-09T04:11:50;100130.94;;;17.54;50.19
46366;BME280;72328;49.570;8.722;2023-10-09T04:16:09;100119.59;;;17.55;50.15
46366;BME280;72328;49.570;8.722;2023-10-09T04:20:11;100128.34;;;17.54;50.19
46366;BME280;72328;49.570;8.722;2023-10-09T04:24:18;100132.75;;;17.54;50.45
46366;BME280;72328;49.570;8.722;2023-10-09T04:28:18;100126.72;;;17.53;50.42
46366;BME280;72328;49.570;8.722;2023-10-09T04:32:19;100121.63;;;17.52;50.35
46366;BME280;72328;49.570;8.722;2023-10-09T04:36:20;100106.97;;;17.51;50.36
46366;BME280;72328;49.570;8.722;2023-10-09T04:40:20;100114.25;;;17.47;50.12
46366;BME280;72328;49.570;8.722;2023-10-09T04:44:43;100126.28;;;17.48;50.42
46366;BME280;72328;49.570;8.722;2023-10-09T04:49:02;100128.22;;;17.46;50.65
46366;BME280;72328;49.570;8.722;2023-10-09T04:53:23;100125.75;;;17.45;50.33
46366;BME280;72328;49.570;8.722;2023-10-09T04:57:24;100126.84;;;17.42;50.43
46366;BME280;72328;49.570;8.722;2023-10-09T05:01:25;100133.00;;;17.41;50.66
46366;BME280;72328;49.570;8.722;2023-10-09T05:05:36;100141.09;;;17.38;50.69
46366;BME280;72328;49.570;8.722;2023-10-09T05:09:43;100143.69;;;17.38;50.65
46366;BME280;72328;49.570;8.722;2023-10-09T05:13:56;100146.56;;;17.35;50.69
46366;BME280;72328;49.570;8.722;2023-10-09T05:18:11;100143.94;;;17.35;50.82
46366;BME280;72328;49.570;8.722;2023-10-09T05:22:16;100146.56;;;17.35;50.79
46366;BME280;72328;49.570;8.722;2023-10-09T05:26:29;100149.16;;;17.35;50.90
46366;BME280;72328;49.570;8.722;2023-10-09T05:30:45;100156.97;;;17.35;50.63
46366;BME280;72328;49.570;8.722;2023-10-09T05:34:55;100149.16;;;17.35;50.92
46366;BME280;72328;49.570;8.722;2023-10-09T05:38:59;100150.25;;;17.33;50.83
46366;BME280;72328;49.570;8.722;2023-10-09T05:42:59;100156.13;;;17.35;50.90
46366;BME280;72328;49.570;8.722;2023-10-09T05:47:03;100163.81;;;17.36;50.96
46366;BME280;72328;49.570;8.722;2023-10-09T05:51:22;100156.69;;;17.38;51.00
46366;BME280;72328;49.570;8.722;2023-10-09T05:55:41;100149.81;;;17.37;51.04
46366;BME280;72328;49.570;8.722;2023-10-09T06:00:01;100160.97;;;17.39;51.12
46366;BME280;72328;49.570;8.722;2023-10-09T06:04:20;100156.56;;;17.40;51.20
46366;BME280;72328;49.570;8.722;2023-10-09T06:08:21;100154.69;;;17.42;51.30
46366;BME280;72328;49.570;8.722;2023-10-09T06:12:27;100162.19;;;17.45;51.36
46366;BME280;72328;49.570;8.722;2023-10-09T06:16:34;100160.44;;;17.45;51.41
46366;BME280;72328;49.570;8.722;2023-10-09T06:20:43;100163.59;;;17.49;51.29
46366;BME280;72328;49.570;8.722;2023-10-09T06:25:03;100159.88;;;17.51;51.53
46366;BME280;72328;49.570;8.722;2023-10-09T06:29:11;100159.59;;;17.54;51.76
46366;BME280;72328;49.570;8.722;2023-10-09T06:33:15;100158.50;;;17.57;51.39
46366;BME280;72328;49.570;8.722;2023-10-09T06:37:29;100154.00;;;17.59;51.53
46366;BME280;72328;49.570;8.722;2023-10-09T06:41:32;100162.34;;;17.62;51.75
46366;BME280;72328;49.570;8.722;2023-10-09T06:45:38;100171.53;;;17.66;51.89
46366;BME280;72328;49.570;8.722;2023-10-09T06:49:44;100161.13;;;17.66;51.85
46366;BME280;72328;49.570;8.722;2023-10-09T06:54:05;100168.38;;;17.72;51.95
46366;BME280;72328;49.570;8.722;2023-10-09T06:58:10;100161.25;;;17.74;51.89
46366;BME280;72328;49.570;8.722;2023-10-09T07:02:15;100168.66;;;17.79;52.04
46366;BME280;72328;49.570;8.722;2023-10-09T07:06:39;100163.03;;;17.83;52.07
46366;BME280;72328;49.570;8.722;2023-10-09T07:10:39;100164.41;;;17.87;52.21
46366;BME280;72328;49.570;8.722;2023-10-09T07:14:40;100167.41;;;17.92;52.21
46366;BME280;72328;49.570;8.722;2023-10-09T07:18:41;100174.81;;;17.97;52.25
46366;BME280;72328;49.570;8.722;2023-10-09T07:22:49;100187.16;;;18.04;52.35
46366;BME280;72328;49.570;8.722;2023-10-09T07:26:53;100179.75;;;18.09;52.45
46366;BME280;72328;49.570;8.722;2023-10-09T07:30:56;100180.81;;;18.16;52.25
46366;BME280;72328;49.570;8.722;2023-10-09T07:35:00;100187.41;;;18.20;52.68
46366;BME280;72328;49.570;8.722;2023-10-09T07:39:02;100200.97;;;18.24;52.60
46366;BME280;72328;49.570;8.722;2023-10-09T07:43:03;100191.78;;;18.29;52.61
46366;BME280;72328;49.570;8.722;2023-10-09T07:47:05;100188.63;;;18.35;52.51
46366;BME280;72328;49.570;8.722;2023-10-09T07:51:19;100189.03;;;18.40;52.73
46366;BME280;72328;49.570;8.722;2023-10-09T07:55:23;100173.50;;;18.48;52.74
46366;BME280;72328;49.570;8.722;2023-10-09T07:59:27;100176.50;;;18.53;52.93
46366;BME280;72328;49.570;8.722;2023-10-09T08:03:31;100186.88;;;18.63;53.01
46366;BME280;72328;49.570;8.722;2023-10-09T08:07:34;100196.09;;;18.67;53.16
46366;BME280;72328;49.570;8.722;2023-10-09T08:11:35;100193.72;;;18.73;53.33
46366;BME280;72328;49.570;8.722;2023-10-09T08:15:56;100201.13;;;18.78;53.33
46366;BME280;72328;49.570;8.722;2023-10-09T08:19:57;100194.53;;;18.83;53.43
46366;BME280;72328;49.570;8.722;2023-10-09T08:23:58;100193.81;;;18.91;53.74
46366;BME280;72328;49.570;8.722;2023-10-09T08:28:05;100195.00;;;18.96;53.72
46366;BME280;72328;49.570;8.722;2023-10-09T08:32:32;100200.84;;;19.08;53.98
46366;BME280;72328;49.570;8.722;2023-10-09T08:36:41;100200.78;;;19.17;54.16
46366;BME280;72328;49.570;8.722;2023-10-09T08:40:51;100203.22;;;19.28;54.45
46366;BME280;72328;49.570;8.722;2023-10-09T08:44:58;100205.88;;;19.46;54.58
46366;BME280;72328;49.570;8.722;2023-10-09T08:49:00;100227.63;;;19.64;55.26
46366;BME280;72328;49.570;8.722;2023-10-09T08:53:05;100233.53;;;19.83;55.45
46366;BME280;72328;49.570;8.722;2023-10-09T08:57:06;100223.22;;;19.99;55.63
46366;BME280;72328;49.570;8.722;2023-10-09T09:01:13;100223.38;;;20.15;55.58
46366;BME280;72328;49.570;8.722;2023-10-09T09:05:18;100226.41;;;20.28;55.69
46366;BME280;72328;49.570;8.722;2023-10-09T09:09:19;100220.50;;;20.44;55.66
46366;BME280;72328;49.570;8.722;2023-10-09T09:13:24;100218.78;;;20.60;55.56
46366;BME280;72328;49.570;8.722;2023-10-09T09:17:34;100224.78;;;20.78;56.05
46366;BME280;72328;49.570;8.722;2023-10-09T09:21:41;100225.41;;;20.98;56.06
46366;BME280;72328;49.570;8.722;2023-10-09T09:25:44;100209.75;;;21.14;55.98
46366;BME280;72328;49.570;8.722;2023-10-09T09:29:46;100212.44;;;21.30;55.83
46366;BME280;72328;49.570;8.722;2023-10-09T09:33:56;100202.81;;;21.46;56.48
46366;BME280;72328;49.570;8.722;2023-10-09T09:37:58;100193.97;;;21.55;55.59
46366;BME280;72328;49.570;8.722;2023-10-09T09:42:04;100200.72;;;21.66;55.23
46366;BME280;72328;49.570;8.722;2023-10-09T09:46:09;100211.91;;;21.76;55.23
46366;BME280;72328;49.570;8.722;2023-10-09T09:50:11;100219.47;;;21.87;55.10
46366;BME280;72328;49.570;8.722;2023-10-09T09:54:25;100222.41;;;22.00;55.23
46366;BME280;72328;49.570;8.722;2023-10-09T09:58:27;100221.59;;;22.07;54.92
46366;BME280;72328;49.570;8.722;2023-10-09T10:02:36;100231.09;;;22.16;54.83
46366;BME280;72328;49.570;8.722;2023-10-09T10:06:43;100228.81;;;22.21;54.87
46366;BME280;72328;49.570;8.722;2023-10-09T10:10:46;100221.44;;;22.25;54.56
46366;BME280;72328;49.570;8.722;2023-10-09T10:14:58;100236.66;;;22.29;54.57
46366;BME280;72328;49.570;8.722;2023-10-09T10:19:04;100232.88;;;22.32;54.35
46366;BME280;72328;49.570;8.722;2023-10-09T10:23:17;100228.97;;;22.36;54.37
46366;BME280;72328;49.570;8.722;2023-10-09T10:27:20;100240.09;;;22.38;54.19
46366;BME280;72328;49.570;8.722;2023-10-09T10:35:56;100239.16;;;22.47;54.36
46366;BME280;72328;49.570;8.722;2023-10-09T10:39:58;100239.63;;;22.50;54.35
46366;BME280;72328;49.570;8.722;2023-10-09T10:44:03;100236.38;;;22.56;54.30
46366;BME280;72328;49.570;8.722;2023-10-09T10:48:22;100236.16;;;22.66;54.01
46366;BME280;72328;49.570;8.722;2023-10-09T10:52:26;100267.16;;;22.78;54.72
46366;BME280;72328;49.570;8.722;2023-10-09T10:56:41;100262.84;;;22.93;54.48
46366;BME280;72328;49.570;8.722;2023-10-09T11:00:52;100265.13;;;23.04;54.59
46366;BME280;72328;49.570;8.722;2023-10-09T11:04:58;100258.50;;;23.16;54.94
46366;BME280;72328;49.570;8.722;2023-10-09T11:09:14;100221.84;;;23.31;55.06
46366;BME280;72328;49.570;8.722;2023-10-09T11:13:23;100196.91;;;23.49;54.72
46366;BME280;72328;49.570;8.722;2023-10-09T11:17:37;100185.38;;;23.58;54.39
46366;BME280;72328;49.570;8.722;2023-10-09T11:21:39;100175.78;;;23.65;54.53
46366;BME280;72328;49.570;8.722;2023-10-09T11:25:45;100157.22;;;23.81;54.63
46366;BME280;72328;49.570;8.722;2023-10-09T11:29:53;100143.38;;;23.87;54.04
46366;BME280;72328;49.570;8.722;2023-10-09T11:33:53;100150.06;;;23.98;54.08
46366;BME280;72328;49.570;8.722;2023-10-09T11:37:57;100138.72;;;24.12;54.27
46366;BME280;72328;49.570;8.722;2023-10-09T11:42:04;100125.59;;;24.26;54.12
46366;BME280;72328;49.570;8.722;2023-10-09T11:46:09;100139.13;;;24.38;54.32
46366;BME280;72328;49.570;8.722;2023-10-09T11:54:44;100173.50;;;24.73;54.65
46366;BME280;72328;49.570;8.722;2023-10-09T11:58:49;100171.84;;;24.87;54.15
46366;BME280;72328;49.570;8.722;2023-10-09T12:02:53;100146.47;;;25.00;54.13
46366;BME280;72328;49.570;8.722;2023-10-09T12:06:54;100146.00;;;25.11;53.81
46366;BME280;72328;49.570;8.722;2023-10-09T12:11:06;100147.00;;;25.25;54.05
46366;BME280;72328;49.570;8.722;2023-10-09T12:15:12;100137.25;;;25.25;52.99
46366;BME280;72328;49.570;8.722;2023-10-09T12:19:17;100138.06;;;25.26;52.80
46366;BME280;72328;49.570;8.722;2023-10-09T12:23:20;100137.31;;;25.32;52.94
46366;BME280;72328;49.570;8.722;2023-10-09T12:27:21;100137.84;;;25.42;52.91
46366;BME280;72328;49.570;8.722;2023-10-09T12:31:22;100132.50;;;25.56;53.02
46366;BME280;72328;49.570;8.722;2023-10-09T12:35:25;100120.69;;;25.73;52.99
46366;BME280;72328;49.570;8.722;2023-10-09T12:39:25;100117.13;;;25.87;52.66
46366;BME280;72328;49.570;8.722;2023-10-09T12:43:31;100106.47;;;25.95;52.15
46366;BME280;72328;49.570;8.722;2023-10-09T12:47:38;100110.59;;;26.04;52.12
46366;BME280;72328;49.570;8.722;2023-10-09T12:51:38;100109.66;;;26.18;52.26
46366;BME280;72328;49.570;8.722;2023-10-09T12:55:41;100109.78;;;26.31;51.97
46366;BME280;72328;49.570;8.722;2023-10-09T12:59:41;100102.50;;;26.40;51.97
46366;BME280;72328;49.570;8.722;2023-10-09T13:03:45;100097.22;;;26.46;51.67
46366;BME280;72328;49.570;8.722;2023-10-09T13:07:49;100095.66;;;26.52;51.68
46366;BME280;72328;49.570;8.722;2023-10-09T13:11:50;100111.56;;;26.58;51.51
46366;BME280;72328;49.570;8.722;2023-10-09T13:15:51;100098.97;;;26.60;51.42
46366;BME280;72328;49.570;8.722;2023-10-09T13:19:53;100098.81;;;26.68;51.41
46366;BME280;72328;49.570;8.722;2023-10-09T13:23:55;100072.56;;;26.67;51.20
46366;BME280;72328;49.570;8.722;2023-10-09T13:27:55;100072.38;;;26.68;50.94
46366;BME280;72328;49.570;8.722;2023-10-09T13:31:56;100080.91;;;26.70;50.60
46366;BME280;72328;49.570;8.722;2023-10-09T13:36:03;100068.09;;;26.67;50.60
46366;BME280;72328;49.570;8.722;2023-10-09T13:40:05;100052.69;;;26.71;50.45
46366;BME280;72328;49.570;8.722;2023-10-09T13:44:11;100048.59;;;26.68;50.15
46366;BME280;72328;49.570;8.722;2023-10-09T13:48:12;100045.56;;;26.71;50.52
46366;BME280;72328;49.570;8.722;2023-10-09T13:52:12;100040.28;;;26.78;50.15
46366;BME280;72328;49.570;8.722;2023-10-09T13:56:19;100038.66;;;26.83;50.51
46366;BME280;72328;49.570;8.722;2023-10-09T14:00:20;100038.28;;;26.86;49.81
46366;BME280;72328;49.570;8.722;2023-10-09T14:04:33;100045.59;;;26.91;50.12
46366;BME280;72328;49.570;8.722;2023-10-09T14:08:34;100054.38;;;26.98;50.10
46366;BME280;72328;49.570;8.722;2023-10-09T14:12:35;100059.28;;;27.07;50.00
46366;BME280;72328;49.570;8.722;2023-10-09T14:16:40;100046.47;;;27.11;49.92
46366;BME280;72328;49.570;8.722;2023-10-09T14:20:43;100052.16;;;27.14;49.57
46366;BME280;72328;49.570;8.722;2023-10-09T14:24:47;100059.72;;;27.17;49.44
46366;BME280;72328;49.570;8.722;2023-10-09T14:28:48;100055.88;;;27.20;49.56
46366;BME280;72328;49.570;8.722;2023-10-09T14:32:49;100053.22;;;27.20;49.75
46366;BME280;72328;49.570;8.722;2023-10-09T14:36:56;100038.16;;;27.20;49.47
46366;BME280;72328;49.570;8.722;2023-10-09T14:40:56;100037.16;;;27.21;49.52
46366;BME280;72328;49.570;8.722;2023-10-09T14:45:00;100043.66;;;27.32;49.72
46366;BME280;72328;49.570;8.722;2023-10-09T14:49:08;100034.31;;;27.49;49.38
46366;BME280;72328;49.570;8.722;2023-10-09T14:53:14;100029.63;;;27.64;49.30
46366;BME280;72328;49.570;8.722;2023-10-09T14:57:15;100034.50;;;27.73;49.41
46366;BME280;72328;49.570;8.722;2023-10-09T15:01:16;100022.31;;;27.79;49.35
46366;BME280;72328;49.570;8.722;2023-10-09T15:05:20;100032.25;;;27.83;49.36
46366;BME280;72328;49.570;8.722;2023-10-09T15:09:23;100027.41;;;27.87;49.19
46366;BME280;72328;49.570;8.722;2023-10-09T15:13:25;100028.41;;;27.86;48.85
46366;BME280;72328;49.570;8.722;2023-10-09T15:17:28;100025.97;;;27.84;48.56
46366;BME280;72328;49.570;8.722;2023-10-09T15:21:29;100022.31;;;27.79;48.34
46366;BME280;72328;49.570;8.722;2023-10-09T15:25:32;100031.84;;;27.73;48.21
46366;BME280;72328;49.570;8.722;2023-10-09T15:29:34;100023.31;;;27.65;47.87
46366;BME280;72328;49.570;8.722;2023-10-09T15:33:37;100023.72;;;27.55;47.79
46366;BME280;72328;49.570;8.722;2023-10-09T15:37:40;100025.97;;;27.45;47.74
46366;BME280;72328;49.570;8.722;2023-10-09T15:41:45;100031.66;;;27.36;47.78
46366;BME280;72328;49.570;8.722;2023-10-09T15:45:46;100023.72;;;27.29;47.63
46366;BME280;72328;49.570;8.722;2023-10-09T15:49:49;100031.44;;;27.18;47.36
46366;BME280;72328;49.570;8.722;2023-10-09T15:53:54;100017.16;;;27.06;47.35
46366;BME280;72328;49.570;8.722;2023-10-09T15:57:57;100034.44;;;26.95;47.18
46366;BME280;72328;49.570;8.722;2023-10-09T16:01:59;100020.16;;;26.83;47.34
46366;BME280;72328;49.570;8.722;2023-10-09T16:06:00;100023.00;;;26.75;46.85
46366;BME280;72328;49.570;8.722;2023-10-09T16:10:00;100023.59;;;26.64;47.17
46366;BME280;72328;49.570;8.722;2023-10-09T16:14:06;100034.31;;;26.56;46.96
46366;BME280;72328;49.570;8.722;2023-10-09T16:18:09;100030.22;;;26.47;46.92
46366;BME280;72328;49.570;8.722;2023-10-09T16:22:11;100027.91;;;26.38;47.00
46366;BME280;72328;49.570;8.722;2023-10-09T16:26:13;100030.50;;;26.25;46.97
46366;BME280;72328;49.570;8.722;2023-10-09T16:30:17;100030.22;;;26.13;46.84
46366;BME280;72328;49.570;8.722;2023-10-09T16:34:21;100036.66;;;26.04;46.61
46366;BME280;72328;49.570;8.722;2023-10-09T16:38:26;100038.88;;;25.94;46.82
46366;BME280;72328;49.570;8.722;2023-10-09T16:42:27;100045.03;;;25.80;46.63
46366;BME280;72328;49.570;8.722;2023-10-09T16:46:27;100055.94;;;25.71;46.40
46366;BME280;72328;49.570;8.722;2023-10-09T16:50:28;100055.63;;;25.59;46.50
46366;BME280;72328;49.570;8.722;2023-10-09T16:54:28;100064.25;;;25.47;46.26
46366;BME280;72328;49.570;8.722;2023-10-09T16:58:29;100067.38;;;25.36;46.45
46366;BME280;72328;49.570;8.722;2023-10-09T17:02:30;100065.81;;;25.20;46.31
46366;BME280;72328;49.570;8.722;2023-10-09T17:06:31;100068.13;;;25.09;46.21
46366;BME280;72328;49.570;8.722;2023-10-09T17:10:35;100067.16;;;24.95;46.56
46366;BME280;72328;49.570;8.722;2023-10-09T17:14:38;100062.38;;;24.84;46.21
46366;BME280;72328;49.570;8.722;2023-10-09T17:18:39;100057.94;;;24.70;46.26
46366;BME280;72328;49.570;8.722;2023-10-09T17:22:40;100063.69;;;24.59;46.49
46366;BME280;72328;49.570;8.722;2023-10-09T17:26:41;100059.50;;;24.50;46.34
46366;BME280;72328;49.570;8.722;2023-10-09T17:30:46;100054.69;;;24.39;46.19
46366;BME280;72328;49.570;8.722;2023-10-09T17:34:49;100055.78;;;24.30;46.21
46366;BME280;72328;49.570;8.722;2023-10-09T17:38:50;100060.97;;;24.24;46.57
46366;BME280;72328;49.570;8.722;2023-10-09T17:42:51;100060.25;;;24.15;46.30
46366;BME280;72328;49.570;8.722;2023-10-09T17:46:53;100070.06;;;24.07;46.38
46366;BME280;72328;49.570;8.722;2023-10-09T17:50:55;100071.59;;;24.01;46.51
46366;BME280;72328;49.570;8.722;2023-10-09T17:54:56;100076.13;;;23.93;46.59
46366;BME280;72328;49.570;8.722;2023-10-09T17:58:57;100071.25;;;23.82;46.61
46366;BME280;72328;49.570;8.722;2023-10-09T18:02:58;100074.94;;;23.73;46.69
46366;BME280;72328;49.570;8.722;2023-10-09T18:06:59;100067.78;;;23.67;46.59
46366;BME280;72328;49.570;8.722;2023-10-09T18:11:00;100076.22;;;23.62;46.55
46366;BME280;72328;49.570;8.722;2023-10-09T18:15:01;100070.00;;;23.55;46.69
46366;BME280;72328;49.570;8.722;2023-10-09T18:19:05;100076.97;;;23.48;46.67
46366;BME280;72328;49.570;8.722;2023-10-09T18:23:08;100075.41;;;23.39;46.44
46366;BME280;72328;49.570;8.722;2023-10-09T18:27:09;100067.59;;;23.31;46.51
46366;BME280;72328;49.570;8.722;2023-10-09T18:31:15;100084.06;;;23.25;46.58
46366;BME280;72328;49.570;8.722;2023-10-09T18:35:18;100089.81;;;23.21;46.50
46366;BME280;72328;49.570;8.722;2023-10-09T18:39:19;100091.66;;;23.12;46.71
46366;BME280;72328;49.570;8.722;2023-10-09T18:43:23;100093.19;;;23.07;46.38
46366;BME280;72328;49.570;8.722;2023-10-09T18:47:23;100094.84;;;23.00;46.56
46366;BME280;72328;49.570;8.722;2023-10-09T18:51:24;100095.53;;;22.94;46.62
46366;BME280;72328;49.570;8.722;2023-10-09T18:55:26;100097.25;;;22.87;46.48
46366;BME280;72328;49.570;8.722;2023-10-09T18:59:27;100090.84;;;22.81;46.52
46366;BME280;72328;49.570;8.722;2023-10-09T19:03:29;100085.50;;;22.75;46.75
46366;BME280;72328;49.570;8.722;2023-10-09T19:07:31;100089.44;;;22.71;46.69
46366;BME280;72328;49.570;8.722;2023-10-09T19:11:33;100088.13;;;22.67;46.48
46366;BME280;72328;49.570;8.722;2023-10-09T19:15:34;100102.94;;;22.60;46.68
46366;BME280;72328;49.570;8.722;2023-10-09T19:19:34;100107.06;;;22.54;46.88
46366;BME280;72328;49.570;8.722;2023-10-09T19:23:36;100114.47;;;22.51;46.76
46366;BME280;72328;49.570;8.722;2023-10-09T19:27:36;100122.84;;;22.46;46.78
46366;BME280;72328;49.570;8.722;2023-10-09T19:31:37;100112.31;;;22.38;46.85
46366;BME280;72328;49.570;8.722;2023-10-09T19:35:39;100115.78;;;22.31;46.65
46366;BME280;72328;49.570;8.722;2023-10-09T19:39:41;100108.75;;;22.23;46.77
46366;BME280;72328;49.570;8.722;2023-10-09T19:43:41;100113.53;;;22.20;46.75
46366;BME280;72328;49.570;8.722;2023-10-09T19:47:43;100108.78;;;22.15;46.91
46366;BME280;72328;49.570;8.722;2023-10-09T19:51:43;100107.47;;;22.11;46.91
46366;BME280;72328;49.570;8.722;2023-10-09T19:55:44;100105.38;;;22.07;46.79
46366;BME280;72328;49.570;8.722;2023-10-09T19:59:45;100115.53;;;22.02;46.77
46366;BME280;72328;49.570;8.722;2023-10-09T20:03:48;100124.88;;;21.96;46.89
46366;BME280;72328;49.570;8.722;2023-10-09T20:07:49;100132.41;;;21.91;46.90
46366;BME280;72328;49.570;8.722;2023-10-09T20:11:49;100142.59;;;21.86;47.15
46366;BME280;72328;49.570;8.722;2023-10-09T20:15:56;100140.63;;;21.80;46.98
46366;BME280;72328;49.570;8.722;2023-10-09T20:19:57;100152.75;;;21.73;47.05
46366;BME280;72328;49.570;8.722;2023-10-09T20:23:57;100153.53;;;21.66;46.65
46366;BME280;72328;49.570;8.722;2023-10-09T20:28:02;100155.00;;;21.60;47.03
46366;BME280;72328;49.570;8.722;2023-10-09T20:32:03;100159.25;;;21.53;47.01
46366;BME280;72328;49.570;8.722;2023-10-09T20:36:07;100161.06;;;21.45;46.97
46366;BME280;72328;49.570;8.722;2023-10-09T20:40:15;100161.53;;;21.40;47.07
46366;BME280;72328;49.570;8.722;2023-10-09T20:44:18;100164.13;;;21.32;47.08
46366;BME280;72328;49.570;8.722;2023-10-09T20:48:19;100170.16;;;21.25;46.98
46366;BME280;72328;49.570;8.722;2023-10-09T20:52:19;100164.75;;;21.18;47.22
46366;BME280;72328;49.570;8.722;2023-10-09T20:56:21;100172.44;;;21.12;47.46
46366;BME280;72328;49.570;8.722;2023-10-09T21:00:25;100184.50;;;21.05;47.22
46366;BME280;72328;49.570;8.722;2023-10-09T21:04:26;100176.50;;;20.98;47.02
46366;BME280;72328;49.570;8.722;2023-10-09T21:08:26;100176.59;;;20.89;47.09
46366;BME280;72328;49.570;8.722;2023-10-09T21:12:27;100187.50;;;20.84;47.03
46366;BME280;72328;49.570;8.722;2023-10-09T21:16:27;100188.28;;;20.77;47.03
46366;BME280;72328;49.570;8.722;2023-10-09T21:20:28;100193.31;;;20.70;47.09
46366;BME280;72328;49.570;8.722;2023-10-09T21:24:30;100194.28;;;20.61;47.13
46366;BME280;72328;49.570;8.722;2023-10-09T21:28:31;100202.72;;;20.55;47.25